createdAt,value
2023-05-08T00:02:05.872Z,2.40
2023-05-08T00:05:09.374Z,1.83
2023-05-08T00:08:14.037Z,2.43
2023-05-08T00:11:17.104Z,2.35
2023-05-08T00:14:20.633Z,2.92
2023-05-08T00:17:23.822Z,2.50
2023-05-08T00:20:26.837Z,2.25
2023-05-08T00:23:31.466Z,2.10
2023-05-08T00:26:34.546Z,2.25
2023-05-08T00:29:37.805Z,2.20
2023-05-08T00:32:41.182Z,2.00
2023-05-08T00:35:44.482Z,1.93
2023-05-08T00:38:49.296Z,2.37
2023-05-08T00:41:52.638Z,2.00
2023-05-08T00:44:56.279Z,2.45
2023-05-08T00:47:59.413Z,1.80
2023-05-08T00:51:05.894Z,1.70
2023-05-08T00:54:10.713Z,1.60
2023-05-08T00:57:15.124Z,2.08
2023-05-08T01:00:19.953Z,2.05
2023-05-08T01:03:24.551Z,2.03
2023-05-08T01:06:28.111Z,1.88
2023-05-08T01:09:32.871Z,1.70
2023-05-08T01:12:47.040Z,1.92
2023-05-08T01:15:55.495Z,2.28
2023-05-08T01:19:08.434Z,2.10
2023-05-08T01:22:24.476Z,1.83
2023-05-08T01:25:57.420Z,1.90
2023-05-08T01:29:30.939Z,2.10
2023-05-08T01:32:38.087Z,2.42
2023-05-08T01:36:15.282Z,2.08
2023-05-08T01:39:21.184Z,2.00
2023-05-08T01:42:31.902Z,2.53
2023-05-08T01:45:40.845Z,2.33
2023-05-08T01:48:48.302Z,1.75
2023-05-08T01:52:01.251Z,2.17
2023-05-08T01:55:08.629Z,2.53
2023-05-08T01:58:13.200Z,2.35
2023-05-08T02:01:17.846Z,2.53
2023-05-08T02:04:22.952Z,2.13
2023-05-08T02:07:28.114Z,2.53
2023-05-08T02:10:31.646Z,2.50
2023-05-08T02:13:36.595Z,2.33
2023-05-08T02:16:43.009Z,2.53
2023-05-08T02:19:47.952Z,1.98
2023-05-08T02:22:52.725Z,2.10
2023-05-08T02:25:57.382Z,2.20
2023-05-08T02:29:03.191Z,2.53
2023-05-08T02:32:08.859Z,2.08
2023-05-08T02:35:14.635Z,2.35
2023-05-08T02:38:21.542Z,1.98
2023-05-08T02:41:27.568Z,2.35
2023-05-08T02:44:31.653Z,2.65
2023-05-08T02:47:42.006Z,2.60
2023-05-08T02:50:52.302Z,1.80
2023-05-08T02:54:02.550Z,1.60
2023-05-08T02:57:14.152Z,1.80
2023-05-08T03:00:22.376Z,1.95
2023-05-08T03:03:29.270Z,2.30
2023-05-08T03:06:36.538Z,2.10
2023-05-08T03:09:45.204Z,1.80
2023-05-08T03:12:51.068Z,2.38
2023-05-08T03:15:56.890Z,2.53
2023-05-08T03:19:04.873Z,1.90
2023-05-08T03:22:08.962Z,2.17
2023-05-08T03:25:15.276Z,2.28
2023-05-08T03:28:19.396Z,2.20
2023-05-08T03:31:23.944Z,2.28
2023-05-08T03:34:27.883Z,2.38
2023-05-08T03:37:31.342Z,2.20
2023-05-08T03:40:39.272Z,2.40
2023-05-08T03:43:43.142Z,1.85
2023-05-08T03:46:47.917Z,2.50
2023-05-08T03:49:51.277Z,2.15
2023-05-08T03:52:54.961Z,3.27
2023-05-08T03:56:00.437Z,2.60
2023-05-08T03:59:15.367Z,2.40
2023-05-08T04:02:24.283Z,2.13
2023-05-08T04:05:38.391Z,2.30
2023-05-08T04:08:46.038Z,2.25
2023-05-08T04:11:58.057Z,2.30
2023-05-08T04:15:05.742Z,2.28
2023-05-08T04:18:11.703Z,2.53
2023-05-08T04:21:38.145Z,2.15
2023-05-08T04:24:44.119Z,2.55
2023-05-08T04:27:48.555Z,2.55
2023-05-08T04:30:52.447Z,2.15
2023-05-08T04:33:55.547Z,2.75
2023-05-08T04:37:00.884Z,2.25
2023-05-08T04:40:05.065Z,2.58
2023-05-08T04:43:08.141Z,2.47
2023-05-08T04:46:11.420Z,2.13
2023-05-08T04:49:14.588Z,2.20
2023-05-08T04:52:19.302Z,3.05
2023-05-08T04:55:22.408Z,2.17
2023-05-08T04:58:25.616Z,2.92
2023-05-08T05:01:29.046Z,2.80
2023-05-08T05:04:32.172Z,2.30
2023-05-08T05:07:36.699Z,2.55
2023-05-08T05:10:40.355Z,2.20
2023-05-08T05:13:43.402Z,2.90
2023-05-08T05:16:47.125Z,2.30
2023-05-08T05:19:51.609Z,2.38
2023-05-08T05:22:57.893Z,2.80
2023-05-08T05:26:00.984Z,2.45
2023-05-08T05:29:04.036Z,2.38
2023-05-08T05:32:10.224Z,2.55
2023-05-08T05:35:13.625Z,2.95
2023-05-08T05:38:18.622Z,2.58
2023-05-08T05:41:22.302Z,2.90
2023-05-08T05:44:25.400Z,3.13
2023-05-08T05:47:28.584Z,2.60
2023-05-08T05:50:32.125Z,2.63
2023-05-08T05:53:36.623Z,2.50
2023-05-08T05:56:39.628Z,2.60
2023-05-08T05:59:43.574Z,2.92
2023-05-08T06:02:47.030Z,3.13
2023-05-08T06:05:50.631Z,2.60
2023-05-08T06:08:55.304Z,2.90
2023-05-08T06:11:58.559Z,2.55
2023-05-08T06:15:01.685Z,2.80
2023-05-08T06:18:04.947Z,2.10
2023-05-08T06:21:08.223Z,2.20
2023-05-08T06:24:33.300Z,2.67
2023-05-08T06:27:36.439Z,2.65
2023-05-08T06:30:40.667Z,2.78
2023-05-08T06:33:43.936Z,2.90
2023-05-08T06:36:46.913Z,2.97
2023-05-08T06:40:00.537Z,3.17
2023-05-08T06:43:14.646Z,3.05
2023-05-08T06:46:18.114Z,2.70
2023-05-08T06:49:21.320Z,3.33
2023-05-08T06:52:25.516Z,2.97
2023-05-08T06:55:30.382Z,2.70
2023-05-08T06:58:33.634Z,3.17
2023-05-08T07:01:37.432Z,3.17
2023-05-08T07:04:40.498Z,2.50
2023-05-08T07:07:43.861Z,2.72
2023-05-08T07:10:48.292Z,2.77
2023-05-08T07:13:51.307Z,3.22
2023-05-08T07:16:54.883Z,3.00
2023-05-08T07:19:57.927Z,2.70
2023-05-08T07:23:01.059Z,3.05
2023-05-08T07:26:05.543Z,3.50
2023-05-08T07:29:09.125Z,2.72
2023-05-08T07:32:12.608Z,3.00
2023-05-08T07:35:15.889Z,3.03
2023-05-08T07:38:19.152Z,3.20
2023-05-08T07:41:23.598Z,3.38
2023-05-08T07:44:26.677Z,3.38
2023-05-08T07:47:29.906Z,3.45
2023-05-08T07:50:33.049Z,3.13
2023-05-08T07:53:35.988Z,3.25
2023-05-08T07:56:40.368Z,3.17
2023-05-08T07:59:43.481Z,2.75
2023-05-08T08:02:46.826Z,3.30
2023-05-08T08:05:49.940Z,3.20
2023-05-08T08:08:53.149Z,3.75
2023-05-08T08:11:57.556Z,3.08
2023-05-08T08:15:00.905Z,3.30
2023-05-08T08:18:04.382Z,3.83
2023-05-08T08:21:07.866Z,3.00
2023-05-08T08:24:10.941Z,3.05
2023-05-08T08:27:15.607Z,2.80
2023-05-08T08:30:19.109Z,3.03
2023-05-08T08:33:22.543Z,2.92
2023-05-08T08:36:25.572Z,2.28
2023-05-08T08:39:29.270Z,2.97
2023-05-08T08:42:34.142Z,2.50
2023-05-08T08:45:38.446Z,2.95
2023-05-08T08:48:45.657Z,2.95
2023-05-08T08:51:52.911Z,3.05
2023-05-08T08:54:57.926Z,2.67
2023-05-08T08:58:14.910Z,2.78
2023-05-08T09:01:20.392Z,2.90
2023-05-08T09:04:27.135Z,3.03
2023-05-08T09:07:31.144Z,3.00
2023-05-08T09:10:35.898Z,2.78
2023-05-08T09:13:40.796Z,2.55
2023-05-08T09:16:44.257Z,2.80
2023-05-08T09:19:49.652Z,2.65
2023-05-08T09:22:53.544Z,2.67
2023-05-08T09:25:56.472Z,2.33
2023-05-08T09:29:11.128Z,2.47
2023-05-08T09:32:19.420Z,2.80
2023-05-08T09:35:36.545Z,2.50
2023-05-08T09:38:42.201Z,2.33
2023-05-08T09:41:58.522Z,2.67
2023-05-08T09:45:03.366Z,2.95
2023-05-08T09:48:07.222Z,2.40
2023-05-08T09:51:10.929Z,2.38
2023-05-08T09:54:19.057Z,2.58
2023-05-08T09:57:21.974Z,2.55
2023-05-08T10:00:27.709Z,3.08
2023-05-08T10:03:49.005Z,2.67
2023-05-08T10:06:58.568Z,2.55
2023-05-08T10:10:03.075Z,2.45
2023-05-08T10:13:07.131Z,2.40
2023-05-08T10:16:16.931Z,3.05
2023-05-08T10:19:22.117Z,2.50
2023-05-08T10:22:26.802Z,2.63
2023-05-08T10:25:36.491Z,2.53
2023-05-08T10:28:44.629Z,2.70
2023-05-08T10:31:54.588Z,2.30
2023-05-08T10:35:00.621Z,2.60
2023-05-08T10:38:04.988Z,2.60
2023-05-08T10:41:08.366Z,2.80
2023-05-08T10:44:12.022Z,2.63
2023-05-08T10:47:23.506Z,2.47
2023-05-08T10:50:39.908Z,2.33
2023-05-08T10:53:47.091Z,2.20
2023-05-08T10:56:50.278Z,2.85
2023-05-08T10:59:53.293Z,2.63
2023-05-08T11:03:14.132Z,2.42
2023-05-08T11:06:45.386Z,2.65
2023-05-08T11:09:49.123Z,2.30
2023-05-08T11:12:52.766Z,2.15
2023-05-08T11:15:56.179Z,2.08
2023-05-08T11:19:19.130Z,2.17
2023-05-08T11:22:33.352Z,2.10
2023-05-08T11:25:43.437Z,2.38
2023-05-08T11:28:57.630Z,2.03
2023-05-08T11:32:00.723Z,2.28
2023-05-08T11:35:11.110Z,2.90
2023-05-08T11:38:18.430Z,2.08
2023-05-08T11:41:23.205Z,1.90
2023-05-08T11:44:29.026Z,2.10
2023-05-08T11:47:37.600Z,2.10
2023-05-08T11:50:42.400Z,2.00
2023-05-08T11:53:45.666Z,2.30
2023-05-08T11:56:49.381Z,1.87
2023-05-08T11:59:52.416Z,2.00
2023-05-08T12:02:55.601Z,2.28
2023-05-08T12:06:00.938Z,2.60
2023-05-08T12:09:05.386Z,2.58
2023-05-08T12:12:08.566Z,3.00
2023-05-08T12:15:13.463Z,2.78
2023-05-08T12:18:18.090Z,2.33
2023-05-08T12:21:22.900Z,2.38
2023-05-08T12:24:26.673Z,2.50
2023-05-08T12:27:30.301Z,2.22
2023-05-08T12:30:33.664Z,2.97
2023-05-08T12:33:38.588Z,2.80
2023-05-08T12:36:43.417Z,3.00
2023-05-08T12:39:46.537Z,2.70
2023-05-08T12:42:50.663Z,2.55
2023-05-08T12:45:53.657Z,2.47
2023-05-08T12:49:02.572Z,2.45
2023-05-08T12:52:08.436Z,2.65
2023-05-08T12:55:22.426Z,2.70
2023-05-08T12:58:26.652Z,1.98
2023-05-08T13:01:29.703Z,2.75
2023-05-08T13:04:38.019Z,2.60
2023-05-08T13:07:42.628Z,2.53
2023-05-08T13:10:50.967Z,2.40
2023-05-08T13:13:54.058Z,2.40
2023-05-08T13:16:57.207Z,2.75
2023-05-08T13:20:00.319Z,2.17
2023-05-08T13:23:05.255Z,2.45
2023-05-08T13:26:08.248Z,1.92
2023-05-08T13:29:11.339Z,2.35
2023-05-08T13:32:14.984Z,2.10
2023-05-08T13:35:18.723Z,2.53
2023-05-08T13:38:23.197Z,2.17
2023-05-08T13:41:26.173Z,2.10
2023-05-08T13:44:29.343Z,2.17
2023-05-08T13:47:32.993Z,2.35
2023-05-08T13:50:36.051Z,2.30
2023-05-08T13:53:40.901Z,2.25
2023-05-08T13:56:44.063Z,1.98
2023-05-08T13:59:47.042Z,2.20
2023-05-08T14:02:52.302Z,2.40
2023-05-08T14:05:56.181Z,2.03
2023-05-08T14:09:00.673Z,1.75
2023-05-08T14:12:03.793Z,2.00
2023-05-08T14:15:36.973Z,2.05
2023-05-08T14:18:40.818Z,1.80
2023-05-08T14:21:45.223Z,2.20
2023-05-08T14:24:48.361Z,2.25
2023-05-08T14:27:51.413Z,1.95
2023-05-08T14:30:56.664Z,2.17
2023-05-08T14:33:59.785Z,1.83
2023-05-08T14:37:03.216Z,2.30
2023-05-08T14:40:07.680Z,1.80
2023-05-08T14:43:10.708Z,1.80
2023-05-08T14:46:15.502Z,1.70
2023-05-08T14:49:25.303Z,2.10
2023-05-08T14:52:36.297Z,1.95
2023-05-08T14:55:41.104Z,1.98
2023-05-08T14:58:44.372Z,2.03
2023-05-08T15:01:49.067Z,1.40
2023-05-08T15:04:52.133Z,1.63
2023-05-08T15:07:55.226Z,2.03
2023-05-08T15:10:58.198Z,1.65
2023-05-08T15:14:01.865Z,1.60
2023-05-08T15:17:06.371Z,1.63
2023-05-08T15:20:10.548Z,1.70
2023-05-08T15:26:16.606Z,1.65
2023-05-08T15:29:19.905Z,1.63
2023-05-08T15:32:24.548Z,1.83
2023-05-08T15:35:27.628Z,2.00
2023-05-08T15:38:30.619Z,2.08
2023-05-08T15:41:34.314Z,1.77
2023-05-08T15:44:54.238Z,2.10
2023-05-08T15:47:59.849Z,1.52
2023-05-08T15:51:03.307Z,1.88
2023-05-08T15:54:06.419Z,2.23
2023-05-08T15:57:09.422Z,1.98
2023-05-08T16:00:13.878Z,2.42
2023-05-08T16:03:18.464Z,2.28
2023-05-08T16:06:21.597Z,1.80
2023-05-08T16:09:24.664Z,1.73
2023-05-08T16:12:27.810Z,2.05
2023-05-08T16:15:30.796Z,1.98
2023-05-08T16:18:35.194Z,1.90
2023-05-08T16:21:38.226Z,2.35
2023-05-08T16:24:41.706Z,2.30
2023-05-08T16:27:44.710Z,2.40
2023-05-08T16:30:47.878Z,2.85
2023-05-08T16:33:52.619Z,1.90
2023-05-08T16:36:55.668Z,2.42
2023-05-08T16:39:59.029Z,2.30
2023-05-08T16:43:02.388Z,2.30
2023-05-08T16:46:07.456Z,2.00
2023-05-08T16:49:11.931Z,2.38
2023-05-08T16:52:15.116Z,2.35
2023-05-08T16:55:18.552Z,2.07
2023-05-08T16:58:22.898Z,1.83
2023-05-08T17:01:26.426Z,2.38
2023-05-08T17:04:31.134Z,2.47
2023-05-08T17:07:34.182Z,2.30
2023-05-08T17:10:37.145Z,1.95
2023-05-08T17:13:40.321Z,2.42
2023-05-08T17:16:43.321Z,2.60
2023-05-08T17:19:50.545Z,2.58
2023-05-08T17:22:54.125Z,2.30
2023-05-08T17:25:58.358Z,2.50
2023-05-08T17:32:04.989Z,2.30
2023-05-08T17:35:10.552Z,2.13
2023-05-08T17:38:16.205Z,2.40
2023-05-08T17:41:19.235Z,2.40
2023-05-08T17:44:22.367Z,2.58
2023-05-08T17:47:25.521Z,2.38
2023-05-08T17:50:30.296Z,2.80
2023-05-08T17:53:34.125Z,2.10
2023-05-08T17:56:37.129Z,2.72
2023-05-08T17:59:40.225Z,2.75
2023-05-08T18:02:43.370Z,2.72
2023-05-08T18:05:48.859Z,2.33
2023-05-08T18:08:51.963Z,2.63
2023-05-08T18:11:55.658Z,2.45
2023-05-08T18:14:59.607Z,3.20
2023-05-08T18:18:02.954Z,3.03
2023-05-08T18:21:07.836Z,2.67
2023-05-08T18:24:11.226Z,2.60
2023-05-08T18:27:14.673Z,2.80
2023-05-08T18:30:17.937Z,3.00
2023-05-08T18:33:21.403Z,2.87
2023-05-08T18:36:26.148Z,3.25
2023-05-08T18:39:29.416Z,2.70
2023-05-08T18:42:32.855Z,3.20
2023-05-08T18:45:39.395Z,3.10
2023-05-08T18:48:42.402Z,3.38
2023-05-08T18:51:47.164Z,3.00
2023-05-08T18:54:50.107Z,3.17
2023-05-08T18:57:53.617Z,3.35
2023-05-08T19:00:57.048Z,3.53
2023-05-08T19:04:00.413Z,3.80
2023-05-08T19:07:05.231Z,3.30
2023-05-08T19:10:10.175Z,3.88
2023-05-08T19:13:16.128Z,3.60
2023-05-08T19:16:19.435Z,3.10
2023-05-08T19:19:22.482Z,3.80
2023-05-08T19:22:27.208Z,4.10
2023-05-08T19:25:30.301Z,3.75
2023-05-08T19:28:34.592Z,3.50
2023-05-08T19:34:41.186Z,4.10
2023-05-08T19:37:45.743Z,4.07
2023-05-08T19:40:57.124Z,3.50
2023-05-08T19:44:01.205Z,3.38
2023-05-08T19:47:04.580Z,4.20
2023-05-08T19:50:11.984Z,3.57
2023-05-08T19:53:16.720Z,3.70
2023-05-08T19:56:19.742Z,3.40
2023-05-08T19:59:22.909Z,3.63
2023-05-08T20:02:25.994Z,3.53
2023-05-08T20:05:29.160Z,3.70
2023-05-08T20:08:33.678Z,3.63
2023-05-08T20:11:36.942Z,4.07
2023-05-08T20:14:40.033Z,3.63
2023-05-08T20:17:43.098Z,3.42
2023-05-08T20:20:46.205Z,3.20
2023-05-08T20:23:50.698Z,3.38
2023-05-08T20:26:56.125Z,3.30
2023-05-08T20:29:59.268Z,3.45
2023-05-08T20:33:05.007Z,3.25
2023-05-08T20:36:08.384Z,3.45
2023-05-08T20:39:13.133Z,3.38
2023-05-08T20:42:16.609Z,2.92
2023-05-08T20:45:19.889Z,3.23
2023-05-08T20:48:22.903Z,3.37
2023-05-08T20:51:26.192Z,2.88
2023-05-08T20:54:31.335Z,3.33
2023-05-08T20:57:34.653Z,3.38
2023-05-08T21:00:37.684Z,2.43
2023-05-08T21:03:40.901Z,3.42
2023-05-08T21:06:44.136Z,3.00
2023-05-08T21:09:48.613Z,2.83
2023-05-08T21:12:51.673Z,3.22
2023-05-08T21:15:54.901Z,3.15
2023-05-08T21:19:22.305Z,2.83
2023-05-08T21:22:25.638Z,3.17
2023-05-08T21:25:29.246Z,3.30
2023-05-08T21:28:32.608Z,2.95
2023-05-08T21:31:36.063Z,3.37
2023-05-08T21:34:41.516Z,3.20
2023-05-08T21:37:44.683Z,2.90
2023-05-08T21:40:47.871Z,2.90
2023-05-08T21:43:51.177Z,3.63
2023-05-08T21:46:54.297Z,3.37
2023-05-08T21:49:58.660Z,3.42
2023-05-08T21:53:01.704Z,3.58
2023-05-08T21:56:05.206Z,3.30
2023-05-08T21:59:08.486Z,2.90
2023-05-08T22:02:12.087Z,2.77
2023-05-08T22:05:16.897Z,3.30
2023-05-08T22:08:20.133Z,2.45
2023-05-08T22:11:23.168Z,2.88
2023-05-08T22:14:26.214Z,2.75
2023-05-08T22:17:29.213Z,2.72
2023-05-08T22:20:34.403Z,2.80
2023-05-08T22:23:37.430Z,3.10
2023-05-08T22:26:40.484Z,3.00
2023-05-08T22:29:43.487Z,2.55
2023-05-08T22:32:53.112Z,2.78
2023-05-08T22:35:58.117Z,2.63
2023-05-08T22:39:01.453Z,2.95
2023-05-08T22:42:05.132Z,2.80
2023-05-08T22:45:09.440Z,3.00
2023-05-08T22:51:17.149Z,2.80
2023-05-08T22:54:20.606Z,3.10
2023-05-08T22:57:24.171Z,2.42
2023-05-08T23:00:27.276Z,3.00
2023-05-08T23:03:30.981Z,2.45
2023-05-08T23:06:36.031Z,2.40
2023-05-08T23:09:39.089Z,2.88
2023-05-08T23:12:42.427Z,3.00
2023-05-08T23:15:45.582Z,2.63
2023-05-08T23:18:48.986Z,2.78
2023-05-08T23:21:53.394Z,2.63
2023-05-08T23:28:27.894Z,2.60
2023-05-08T23:31:30.969Z,2.80
2023-05-08T23:34:34.184Z,2.60
2023-05-08T23:37:37.401Z,2.63
2023-05-08T23:40:40.474Z,3.58
2023-05-08T23:43:47.109Z,2.92
2023-05-08T23:46:50.727Z,3.05
2023-05-08T23:49:53.950Z,2.80
2023-05-08T23:52:57.080Z,3.13
2023-05-08T23:56:00.369Z,2.58
2023-05-08T23:59:04.908Z,3.17
